sensor_id;sensor_type;location;lat;lon;timestamp;temperature;humidity
23188;DHT22;11762;59.878;17.686;2022-10-22T00:00:34;3.90;99.90
23188;DHT22;11762;59.878;17.686;2022-10-22T00:03:23;3.90;99.90
23188;DHT22;11762;59.878;17.686;2022-10-22T00:06:10;3.90;99.90
23188;DHT22;11762;59.878;17.686;2022-10-22T00:08:58;3.90;99.90
23188;DHT22;11762;59.878;17.686;2022-10-22T00:11:45;3.80;99.90
23188;DHT22;11762;59.878;17.686;2022-10-22T00:14:32;3.80;99.90
23188;DHT22;11762;59.878;17.686;2022-10-22T00:17:19;3.70;99.90
23188;DHT22;11762;59.878;17.686;2022-10-22T00:20:09;3.70;99.90
23188;DHT22;11762;59.878;17.686;2022-10-22T00:22:56;3.70;99.90
23188;DHT22;11762;59.878;17.686;2022-10-22T00:25:44;3.70;99.90
23188;DHT22;11762;59.878;17.686;2022-10-22T00:28:31;3.70;99.90
23188;DHT22;11762;59.878;17.686;2022-10-22T00:31:18;3.70;99.90
23188;DHT22;11762;59.878;17.686;2022-10-22T00:34:05;3.70;99.90
23188;DHT22;11762;59.878;17.686;2022-10-22T00:36:54;3.60;99.90
23188;DHT22;11762;59.878;17.686;2022-10-22T00:39:41;3.60;99.90
23188;DHT22;11762;59.878;17.686;2022-10-22T00:42:29;3.50;99.90
23188;DHT22;11762;59.878;17.686;2022-10-22T00:45:22;3.40;99.90
23188;DHT22;11762;59.878;17.686;2022-10-22T00:48:12;3.30;99.90
23188;DHT22;11762;59.878;17.686;2022-10-22T00:51:03;3.20;99.90
23188;DHT22;11762;59.878;17.686;2022-10-22T00:53:55;3.20;99.90
23188;DHT22;11762;59.878;17.686;2022-10-22T00:56:43;3.10;99.90
23188;DHT22;11762;59.878;17.686;2022-10-22T00:59:31;3.10;99.90
23188;DHT22;11762;59.878;17.686;2022-10-22T01:02:19;3.10;99.90
23188;DHT22;11762;59.878;17.686;2022-10-22T01:05:07;3.00;99.90
23188;DHT22;11762;59.878;17.686;2022-10-22T01:07:54;3.10;99.90
23188;DHT22;11762;59.878;17.686;2022-10-22T01:10:50;3.10;99.90
23188;DHT22;11762;59.878;17.686;2022-10-22T01:13:48;3.30;99.90
23188;DHT22;11762;59.878;17.686;2022-10-22T01:16:43;3.30;99.90
23188;DHT22;11762;59.878;17.686;2022-10-22T01:19:49;3.30;99.90
23188;DHT22;11762;59.878;17.686;2022-10-22T01:22:42;3.40;99.90
23188;DHT22;11762;59.878;17.686;2022-10-22T01:25:34;3.50;99.90
23188;DHT22;11762;59.878;17.686;2022-10-22T01:28:37;3.50;99.90
23188;DHT22;11762;59.878;17.686;2022-10-22T01:31:30;3.60;99.90
23188;DHT22;11762;59.878;17.686;2022-10-22T01:34:19;3.60;99.90
23188;DHT22;11762;59.878;17.686;2022-10-22T01:37:09;3.60;99.90
23188;DHT22;11762;59.878;17.686;2022-10-22T01:39:59;3.50;99.90
23188;DHT22;11762;59.878;17.686;2022-10-22T01:42:55;3.50;99.90
23188;DHT22;11762;59.878;17.686;2022-10-22T01:45:47;3.40;99.90
23188;DHT22;11762;59.878;17.686;2022-10-22T01:48:44;3.40;99.90
23188;DHT22;11762;59.878;17.686;2022-10-22T01:51:50;3.40;99.90
23188;DHT22;11762;59.878;17.686;2022-10-22T01:54:46;3.30;99.90
23188;DHT22;11762;59.878;17.686;2022-10-22T01:57:42;3.30;99.90
23188;DHT22;11762;59.878;17.686;2022-10-22T02:00:36;3.30;99.90
23188;DHT22;11762;59.878;17.686;2022-10-22T02:03:31;3.30;99.90
23188;DHT22;11762;59.878;17.686;2022-10-22T02:06:22;3.40;99.90
23188;DHT22;11762;59.878;17.686;2022-10-22T02:09:13;3.40;99.90
23188;DHT22;11762;59.878;17.686;2022-10-22T02:12:03;3.40;99.90
23188;DHT22;11762;59.878;17.686;2022-10-22T02:14:52;3.30;99.90
23188;DHT22;11762;59.878;17.686;2022-10-22T02:17:42;3.40;99.90
23188;DHT22;11762;59.878;17.686;2022-10-22T02:20:33;3.30;99.90
23188;DHT22;11762;59.878;17.686;2022-10-22T02:23:22;3.40;99.90
23188;DHT22;11762;59.878;17.686;2022-10-22T02:26:15;3.40;99.90
23188;DHT22;11762;59.878;17.686;2022-10-22T02:29:09;3.40;99.90
23188;DHT22;11762;59.878;17.686;2022-10-22T02:31:58;3.40;99.90
23188;DHT22;11762;59.878;17.686;2022-10-22T02:34:48;3.40;99.90
23188;DHT22;11762;59.878;17.686;2022-10-22T02:37:37;3.30;99.90
23188;DHT22;11762;59.878;17.686;2022-10-22T02:40:27;3.30;99.90
23188;DHT22;11762;59.878;17.686;2022-10-22T02:43:17;3.40;99.90
